This is the latest recevied weather packets stored in our database for station/object W6ZZY. If no packets are shown the sender has not sent any weather packets the latest 10 day(s).
| Time | Temp. | Humidity | Pressure | Rain* | Wind** | Luminosity | Snow |
|---|---|---|---|---|---|---|---|
| 1777152621 | 13.33° C | 78% | 1013.7 hPa | 0 mm | - | - | - |
| 1777144832 | 13.33° C | 78% | 1014.1 hPa | 0 mm | - | - | - |
| 1777141220 | 12.22° C | 83% | 1014.4 hPa | 0 mm | - | - | - |
| 1777139424 | 12.22° C | 84% | 1014.1 hPa | 0 mm | - | - | - |
| 1777138818 | 12.22° C | 84% | 1014.2 hPa | 0 mm | - | - | - |
| 1777136417 | 11.67° C | 83% | 1014 hPa | 0 mm | - | - | - |
| 1777134016 | 11.67° C | 83% | 1013.8 hPa | 0 mm | - | - | - |
| 1777131031 | 11.11° C | 84% | 1013.7 hPa | 0 mm | - | - | - |
| 1777129820 | 11.67° C | 84% | 1013.8 hPa | 0 mm | - | - | - |
| 1777128651 | 11.67° C | 85% | 1013.6 hPa | 0 mm | - | - | - |
| 1777124430 | 11.11° C | 87% | 1013.3 hPa | 0 mm | - | - | - |
| 1777114825 | 10.56° C | 87% | 1013.6 hPa | 0 mm | - | - | - |
| 1777114219 | 10.56° C | 87% | 1013.6 hPa | 0 mm | - | - | - |
| 1777113635 | 10.56° C | 87% | 1013.6 hPa | 0 mm | - | - | - |
| 1777108831 | 11.11° C | 87% | 1014 hPa | 0 mm | - | - | - |
| 1777104633 | 10.56° C | 88% | 1014.5 hPa | 0 mm | - | - | - |
| 1777099831 | 10.56° C | 90% | 1014.7 hPa | 0 mm | - | - | - |
| 1777098035 | 10.56° C | 89% | 1014.8 hPa | 0 mm | - | - | - |
| 1777092629 | 10.56° C | 90% | 1015.1 hPa | 0 mm | - | - | - |
| 1777091419 | 10.56° C | 88% | 1014.9 hPa | 0 mm | - | - | - |
* Rain latest hour (hover to see other rain measurements)
** Current wind speed in m/s (hover to see current wind gust speed)